Terminal Aerodrome Forecast
Issued by NWS Paducah, KY

Home | Current Version | Previous Version | Text Only | Print | Product List | Glossary On
Versions: 1 2 3 4 5 6 7 8 9 10 11 12
000
FTUS43 KPAH 212300
TAFEVV
TAF
KEVV 212320Z 2200/2224 21010KT P6SM -SHRA SCT030 BKN070
      TEMPO 2200/2202 5SM SHRA BR BKN030
     FM220700 27008KT P6SM BKN035
     FM221000 30009KT P6SM BKN035
     FM221500 35012G20KT P6SM SKC=

USA.gov is the U.S. government's official web portal to all federal, state and local government web resources and services.